Nautilus Survey — LIXR — position and weather

sailwx.info

Track history (hours):
 
Tides and Currents Weather Stations Pressure Air Temp Water Temp Dewpoint Dewpoint Depression Visibility Wind Speed Wind Dir Waves Ship Positions

Nautilus Survey

Last reported at 2018-May-23 10:56 UTC. Time now 2018-May-23 11:07 UTC.
Position N 66°42' E 013°09'.

Length 24 m; draft 2 m.

Type: Tow > 200 m length. MMSI: 259464000.

Date/timePositionNaut miles runAvg speedWind from/ knotsBaromVisibWave heightAir tempDewpointWater temp
2018-May-23 10:56N 66°42' E 013°09'1 2.1
2018-May-23 10:17N 66°43' E 013°11'6 4.6
2018-May-23 08:54N 66°45' E 013°26'  
2018-May-15 09:06N 66°45' E 013°14'10 5.4
2018-May-15 07:16N 66°54' E 013°26'2 5.9
2018-May-15 06:59N 66°55' E 013°29'1 1.3
2018-May-15 05:56N 66°56' E 013°26'0 0.0
2018-May-15 05:30N 66°56' E 013°26'0 0.0
2018-May-15 04:52N 66°56' E 013°26'0 0.0
2018-May-15 04:28N 66°56' E 013°26'0 0.0
2018-May-15 03:59N 66°56' E 013°26'0 0.0
2018-May-15 03:29N 66°56' E 013°26'0 0.0
2018-May-15 03:00N 66°56' E 013°26'0 0.0
2018-May-15 02:30N 66°56' E 013°26'0 0.0
2018-May-15 02:00N 66°56' E 013°26'0 0.0
2018-May-15 01:30N 66°56' E 013°26'0 0.0
2018-May-15 00:59N 66°56' E 013°26'0 0.0
2018-May-15 00:05N 66°56' E 013°26'0 0.0
2018-May-15 00:01N 66°56' E 013°26'0 0.0
2018-May-14 23:27N 66°56' E 013°26'0 0.0
2018-May-14 22:40N 66°56' E 013°26'0 0.0
2018-May-14 22:29N 66°56' E 013°26'0 0.0
2018-May-14 22:00N 66°56' E 013°26'0 0.0
2018-May-14 21:30N 66°56' E 013°26'0 0.0
2018-May-14 20:59N 66°56' E 013°26'0 0.0
2018-May-14 20:28N 66°56' E 013°26'0 0.0
2018-May-14 20:00N 66°56' E 013°26'1 0.9
2018-May-14 19:14N 66°56' E 013°27'1 2.7
2018-May-14 19:00N 66°57' E 013°28'1 2.7
2018-May-14 18:30N 66°58' E 013°30'3 5.8
2018-May-14 18:00N 66°59' E 013°36'3 5.6
2018-May-14 17:30N 67°01' E 013°42'3 5.7
2018-May-14 17:00N 67°02' E 013°48'3 5.7
2018-May-14 16:30N 67°04' E 013°54'3 5.8
2018-May-14 16:00N 67°06' E 013°59'2 4.7
2018-May-14 15:30N 67°08' E 014°02'2 4.3
2018-May-14 15:00N 67°10' E 014°04'3 5.5
2018-May-14 14:30N 67°13' E 014°08'3 6.0
2018-May-14 14:00N 67°15' E 014°12'2 3.2
2018-May-14 13:30N 67°16' E 014°16'3 5.6
2018-May-14 13:00N 67°17' E 014°23'0 0.4
2018-May-14 12:28N 67°17' E 014°23'0 0.0
2018-May-14 11:55N 67°17' E 014°23'0 0.0
2018-May-14 11:30N 67°17' E 014°23'0 0.8
2018-May-14 11:00N 67°17' E 014°22'0 0.0
2018-May-14 10:30N 67°17' E 014°22'0 0.0
2018-May-14 09:58N 67°17' E 014°22'0 0.0
2018-May-14 09:29N 67°17' E 014°22'0 0.0
2018-May-14 08:59N 67°17' E 014°22'0 0.0
2018-May-14 08:28N 67°17' E 014°22'0 0.0
2018-May-14 07:58N 67°17' E 014°22'0 0.0
2018-May-14 07:28N 67°17' E 014°22'0 0.0
2018-May-14 06:58N 67°17' E 014°22'0 0.0
2018-May-14 06:28N 67°17' E 014°22'0 0.0
2018-May-14 05:59N 67°17' E 014°22'0 0.0
2018-May-14 05:28N 67°17' E 014°22'0 0.0
2018-May-14 04:59N 67°17' E 014°22'0 0.0
2018-May-14 04:28N 67°17' E 014°22'0 0.0
2018-May-14 03:58N 67°17' E 014°22'0 0.0
2018-May-14 03:29N 67°17' E 014°22'0 0.0
2018-May-14 02:59N 67°17' E 014°22'0 0.0
2018-May-14 02:29N 67°17' E 014°22'0 0.0
2018-May-14 01:59N 67°17' E 014°22'0 0.0
2018-May-14 01:25N 67°17' E 014°22'0 0.0
2018-May-14 00:58N 67°17' E 014°22'0 0.0
2018-May-14 00:30N 67°17' E 014°22'0 0.0
2018-May-13 23:59N 67°17' E 014°22'0 0.0
2018-May-13 23:29N 67°17' E 014°22'0 0.0
2018-May-13 22:59N 67°17' E 014°22'0 0.0
2018-May-13 22:30N 67°17' E 014°22'0 0.0
2018-May-13 22:00N 67°17' E 014°22'0 0.0
2018-May-13 21:29N 67°17' E 014°22'0 0.0
2018-May-13 21:00N 67°17' E 014°22'0 0.0
2018-May-13 20:29N 67°17' E 014°22'0 0.0
2018-May-13 19:59N 67°17' E 014°22'0 0.0
2018-May-13 19:29N 67°17' E 014°22'0 0.0
2018-May-13 18:58N 67°17' E 014°22'0 0.0
2018-May-13 18:28N 67°17' E 014°22'0 0.0
2018-May-13 17:59N 67°17' E 014°22'1 1.8
2018-May-13 17:30N 67°18' E 014°24'0 0.6
2018-May-13 17:00N 67°17' E 014°23'0 0.8
2018-May-13 16:30N 67°18' E 014°23'1 1.5
2018-May-13 16:00N 67°17' E 014°22'1 1.0
2018-May-13 15:30N 67°18' E 014°22'0 0.0
2018-May-13 15:00N 67°18' E 014°22'0 0.4
2018-May-13 14:30N 67°18' E 014°23'0 0.0
2018-May-13 14:00N 67°18' E 014°23'0 0.0
2018-May-13 13:30N 67°18' E 014°23'0 0.0
2018-May-13 13:00N 67°18' E 014°23'0 0.0
2018-May-13 12:30N 67°18' E 014°23'0 0.2
2018-May-13 12:01N 67°18' E 014°23'0 0.2
2018-May-13 11:30N 67°18' E 014°23'0 0.0
2018-May-13 11:00N 67°18' E 014°23'  
Track history (hours):
 
Tides and Currents Weather Stations Pressure Air Temp Water Temp Dewpoint Dewpoint Depression Visibility Wind Speed Wind Dir Waves Ship Positions

Nautilus Survey

Last reported at 2018-May-23 10:56 UTC. Time now 2018-May-23 11:07 UTC.
Position N 66°42' E 013°09'.

Length 24 m; draft 2 m.

Type: Tow > 200 m length. MMSI: 259464000.

Date/timePositionNaut miles runAvg speedWind from/ knotsBaromVisibWave heightAir tempDewpointWater temp
2018-May-23 10:56N 66°42' E 013°09'1 2.1
2018-May-23 10:17N 66°43' E 013°11'6 4.6
2018-May-23 08:54N 66°45' E 013°26'  
2018-May-15 09:06N 66°45' E 013°14'10 5.4
2018-May-15 07:16N 66°54' E 013°26'2 5.9
2018-May-15 06:59N 66°55' E 013°29'1 1.3
2018-May-15 05:56N 66°56' E 013°26'0 0.0
2018-May-15 05:30N 66°56' E 013°26'0 0.0
2018-May-15 04:52N 66°56' E 013°26'0 0.0
2018-May-15 04:28N 66°56' E 013°26'0 0.0
2018-May-15 03:59N 66°56' E 013°26'0 0.0
2018-May-15 03:29N 66°56' E 013°26'0 0.0
2018-May-15 03:00N 66°56' E 013°26'0 0.0
2018-May-15 02:30N 66°56' E 013°26'0 0.0
2018-May-15 02:00N 66°56' E 013°26'0 0.0
2018-May-15 01:30N 66°56' E 013°26'0 0.0
2018-May-15 00:59N 66°56' E 013°26'0 0.0
2018-May-15 00:05N 66°56' E 013°26'0 0.0
2018-May-15 00:01N 66°56' E 013°26'0 0.0
2018-May-14 23:27N 66°56' E 013°26'0 0.0
2018-May-14 22:40N 66°56' E 013°26'0 0.0
2018-May-14 22:29N 66°56' E 013°26'0 0.0
2018-May-14 22:00N 66°56' E 013°26'0 0.0
2018-May-14 21:30N 66°56' E 013°26'0 0.0
2018-May-14 20:59N 66°56' E 013°26'0 0.0
2018-May-14 20:28N 66°56' E 013°26'0 0.0
2018-May-14 20:00N 66°56' E 013°26'1 0.9
2018-May-14 19:14N 66°56' E 013°27'1 2.7
2018-May-14 19:00N 66°57' E 013°28'1 2.7
2018-May-14 18:30N 66°58' E 013°30'3 5.8
2018-May-14 18:00N 66°59' E 013°36'3 5.6
2018-May-14 17:30N 67°01' E 013°42'3 5.7
2018-May-14 17:00N 67°02' E 013°48'3 5.7
2018-May-14 16:30N 67°04' E 013°54'3 5.8
2018-May-14 16:00N 67°06' E 013°59'2 4.7
2018-May-14 15:30N 67°08' E 014°02'2 4.3
2018-May-14 15:00N 67°10' E 014°04'3 5.5
2018-May-14 14:30N 67°13' E 014°08'3 6.0
2018-May-14 14:00N 67°15' E 014°12'2 3.2
2018-May-14 13:30N 67°16' E 014°16'3 5.6
2018-May-14 13:00N 67°17' E 014°23'0 0.4
2018-May-14 12:28N 67°17' E 014°23'0 0.0
2018-May-14 11:55N 67°17' E 014°23'0 0.0
2018-May-14 11:30N 67°17' E 014°23'0 0.8
2018-May-14 11:00N 67°17' E 014°22'0 0.0
2018-May-14 10:30N 67°17' E 014°22'0 0.0
2018-May-14 09:58N 67°17' E 014°22'0 0.0
2018-May-14 09:29N 67°17' E 014°22'0 0.0
2018-May-14 08:59N 67°17' E 014°22'0 0.0
2018-May-14 08:28N 67°17' E 014°22'0 0.0
2018-May-14 07:58N 67°17' E 014°22'0 0.0
2018-May-14 07:28N 67°17' E 014°22'0 0.0
2018-May-14 06:58N 67°17' E 014°22'0 0.0
2018-May-14 06:28N 67°17' E 014°22'0 0.0
2018-May-14 05:59N 67°17' E 014°22'0 0.0
2018-May-14 05:28N 67°17' E 014°22'0 0.0
2018-May-14 04:59N 67°17' E 014°22'0 0.0
2018-May-14 04:28N 67°17' E 014°22'0 0.0
2018-May-14 03:58N 67°17' E 014°22'0 0.0
2018-May-14 03:29N 67°17' E 014°22'0 0.0
2018-May-14 02:59N 67°17' E 014°22'0 0.0
2018-May-14 02:29N 67°17' E 014°22'0 0.0
2018-May-14 01:59N 67°17' E 014°22'0 0.0
2018-May-14 01:25N 67°17' E 014°22'0 0.0
2018-May-14 00:58N 67°17' E 014°22'0 0.0
2018-May-14 00:30N 67°17' E 014°22'0 0.0
2018-May-13 23:59N 67°17' E 014°22'0 0.0
2018-May-13 23:29N 67°17' E 014°22'0 0.0
2018-May-13 22:59N 67°17' E 014°22'0 0.0
2018-May-13 22:30N 67°17' E 014°22'0 0.0
2018-May-13 22:00N 67°17' E 014°22'0 0.0
2018-May-13 21:29N 67°17' E 014°22'0 0.0
2018-May-13 21:00N 67°17' E 014°22'0 0.0
2018-May-13 20:29N 67°17' E 014°22'0 0.0
2018-May-13 19:59N 67°17' E 014°22'0 0.0
2018-May-13 19:29N 67°17' E 014°22'0 0.0
2018-May-13 18:58N 67°17' E 014°22'0 0.0
2018-May-13 18:28N 67°17' E 014°22'0 0.0
2018-May-13 17:59N 67°17' E 014°22'1 1.8
2018-May-13 17:30N 67°18' E 014°24'0 0.6
2018-May-13 17:00N 67°17' E 014°23'0 0.8
2018-May-13 16:30N 67°18' E 014°23'1 1.5
2018-May-13 16:00N 67°17' E 014°22'1 1.0
2018-May-13 15:30N 67°18' E 014°22'0 0.0
2018-May-13 15:00N 67°18' E 014°22'0 0.4
2018-May-13 14:30N 67°18' E 014°23'0 0.0
2018-May-13 14:00N 67°18' E 014°23'0 0.0
2018-May-13 13:30N 67°18' E 014°23'0 0.0
2018-May-13 13:00N 67°18' E 014°23'0 0.0
2018-May-13 12:30N 67°18' E 014°23'0 0.2
2018-May-13 12:01N 67°18' E 014°23'0 0.2
2018-May-13 11:30N 67°18' E 014°23'0 0.0
2018-May-13 11:00N 67°18' E 014°23'  

Dump ship's entire track history